Time;durP1;ratioP1;P1;durP2;ratioP2;P2;SDS_P1;SDS_P2;PMS_P1;PMS_P2;Temp;Humidity;BMP_temperature;BMP_pressure;BME280_temperature;BME280_humidity;BME280_pressure;Samples;Min_cycle;Max_cycle;Signal;HPM_P1;HPM_P2
2023/02/13 00:00:32;;;;;;;0.20;0.20;;;;;;;10.15;100.00;103082.03;4953798;28;20038;-58
2023/02/13 00:02:57;;;;;;;0.20;0.20;;;;;;;9.95;100.00;103083.09;4971757;28;20043;-60
2023/02/13 00:05:22;;;;;;;0.10;0.10;;;;;;;10.01;100.00;103085.44;4963183;28;20393;-59
2023/02/13 00:07:48;;;;;;;0.45;0.45;;;;;;;10.08;100.00;103082.41;4969772;28;20042;-59
2023/02/13 00:10:13;;;;;;;0.10;0.10;;;;;;;10.06;100.00;103092.66;4967225;28;20037;-61
2023/02/13 00:12:39;;;;;;;0.50;0.50;;;;;;;10.07;100.00;103090.75;4936407;28;20034;-61
2023/02/13 00:15:05;;;;;;;0.30;0.30;;;;;;;10.12;100.00;103082.63;4965903;28;20110;-58
2023/02/13 00:17:31;;;;;;;0.20;0.20;;;;;;;10.10;100.00;103077.56;4969630;28;20700;-58
2023/02/13 00:19:56;;;;;;;0.10;0.10;;;;;;;10.08;100.00;103079.72;4953326;28;20039;-58
2023/02/13 00:22:23;;;;;;;0.20;0.20;;;;;;;10.09;100.00;103083.97;4970016;28;20049;-58
2023/02/13 00:24:48;;;;;;;0.30;0.30;;;;;;;9.97;100.00;103080.91;4973519;28;20058;-60
2023/02/13 00:27:14;;;;;;;0.20;0.20;;;;;;;10.00;100.00;103080.34;4966190;28;20078;-59
2023/02/13 00:29:39;;;;;;;0.40;0.40;;;;;;;9.98;100.00;103082.53;4968881;28;20031;-58
2023/02/13 00:32:05;;;;;;;0.30;0.30;;;;;;;10.04;100.00;103076.00;4969338;28;20601;-58
2023/02/13 00:34:31;;;;;;;0.20;0.20;;;;;;;10.05;100.00;103077.56;4968327;28;20109;-59
2023/02/13 00:36:57;;;;;;;0.30;0.30;;;;;;;10.08;100.00;103077.00;4969670;28;20455;-59
2023/02/13 00:39:22;;;;;;;0.40;0.40;;;;;;;10.04;100.00;103076.00;4969801;28;20039;-58
2023/02/13 00:41:48;;;;;;;0.30;0.30;;;;;;;10.00;100.00;103075.78;4969255;28;20031;-60
2023/02/13 00:44:13;;;;;;;0.10;0.10;;;;;;;10.01;100.00;103073.88;4956983;28;20041;-58
2023/02/13 00:46:39;;;;;;;0.30;0.30;;;;;;;10.04;100.00;103073.31;4967326;28;20053;-59
2023/02/13 00:49:05;;;;;;;0.45;0.45;;;;;;;9.94;100.00;103081.50;4972571;28;20046;-59
2023/02/13 00:51:33;;;;;;;0.30;0.30;;;;;;;9.97;100.00;103075.53;4968786;28;20504;-59
2023/02/13 00:53:58;;;;;;;0.10;0.10;;;;;;;10.02;100.00;103078.16;4947899;28;20074;-57
2023/02/13 00:56:24;;;;;;;0.28;0.28;;;;;;;10.07;100.00;103067.31;4955250;28;20077;-56
2023/02/13 00:58:49;;;;;;;0.45;0.45;;;;;;;10.09;100.00;103067.84;4972872;28;20492;-58
2023/02/13 01:01:15;;;;;;;0.75;0.30;;;;;;;10.12;100.00;103072.69;4952420;28;20039;-60
2023/02/13 01:03:41;;;;;;;0.32;0.32;;;;;;;10.13;100.00;103063.50;4968844;28;20482;-59
2023/02/13 01:06:06;;;;;;;0.40;0.40;;;;;;;10.10;100.00;103066.78;4971551;28;20457;-59
2023/02/13 01:08:32;;;;;;;0.10;0.10;;;;;;;10.10;100.00;103064.09;4969301;28;20077;-57
2023/02/13 01:10:58;;;;;;;0.13;0.13;;;;;;;10.15;100.00;103066.69;4971411;28;20045;-57
2023/02/13 01:13:24;;;;;;;0.28;0.28;;;;;;;10.19;100.00;103061.53;4970561;28;20065;-59
2023/02/13 01:15:50;;;;;;;0.88;0.82;;;;;;;10.06;100.00;103062.22;4969393;28;20193;-57
2023/02/13 01:18:17;;;;;;;0.20;0.20;;;;;;;10.02;100.00;103057.44;4956089;28;20038;-55
2023/02/13 01:20:43;;;;;;;0.20;0.20;;;;;;;10.00;100.00;103061.50;4955434;28;20497;-56
2023/02/13 01:23:10;;;;;;;0.75;0.75;;;;;;;9.93;100.00;103061.88;4952632;28;20034;-62
2023/02/13 01:25:39;;;;;;;0.93;0.93;;;;;;;9.87;100.00;103056.84;4971367;28;20041;-53
2023/02/13 01:28:05;;;;;;;0.32;0.32;;;;;;;9.94;100.00;103062.66;4972470;28;20505;-58
2023/02/13 01:30:30;;;;;;;0.15;0.15;;;;;;;9.93;100.00;103052.97;4953642;28;20042;-61
2023/02/13 01:32:56;;;;;;;1.13;1.08;;;;;;;9.93;100.00;103056.47;4954542;28;20061;-60
2023/02/13 01:35:21;;;;;;;0.17;0.17;;;;;;;9.94;100.00;103066.16;4972888;28;20445;-59
2023/02/13 01:37:46;;;;;;;0.22;0.22;;;;;;;9.95;100.00;103050.81;4953227;28;20038;-58
2023/02/13 01:40:13;;;;;;;0.40;0.40;;;;;;;9.93;100.00;103056.47;4954855;28;20030;-61
2023/02/13 01:42:39;;;;;;;0.43;0.43;;;;;;;9.87;100.00;103049.56;4972592;28;20046;-58
2023/02/13 01:45:27;;;;;;;0.20;0.20;;;;;;;9.88;100.00;103059.25;4969443;28;20030;-60
2023/02/13 01:48:00;;;;;;;0.20;0.20;;;;;;;9.83;100.00;103058.53;4955389;28;20050;-56
2023/02/13 01:50:31;;;;;;;0.55;0.55;;;;;;;9.85;100.00;103040.97;4965272;28;20038;-60
2023/02/13 01:53:00;;;;;;;;;;;;;;;9.87;100.00;103048.78;4970665;28;20370;-60
2023/02/13 01:55:27;;;;;;;0.10;0.10;;;;;;;9.99;100.00;103041.06;4962136;28;19914;-59
2023/02/13 01:58:04;;;;;;;0.32;0.32;;;;;;;9.98;100.00;103039.47;4970855;28;20498;-60
2023/02/13 02:00:30;;;;;;;0.20;0.20;;;;;;;9.77;100.00;103038.16;4967682;28;20039;-59
2023/02/13 02:03:14;;;;;;;0.40;0.40;;;;;;;9.69;100.00;103036.09;4961416;28;20035;-61
2023/02/13 02:05:41;;;;;;;0.73;0.73;;;;;;;9.60;100.00;103033.25;4957347;28;20057;-59
2023/02/13 02:08:11;;;;;;;0.80;0.68;;;;;;;9.61;100.00;103028.69;4970212;28;20030;-61
2023/02/13 02:10:38;;;;;;;0.50;0.50;;;;;;;9.65;100.00;103035.88;4953449;28;20041;-59
2023/02/13 02:13:09;;;;;;;0.20;0.20;;;;;;;9.74;100.00;103030.66;4954552;28;20097;-58
2023/02/13 02:15:39;;;;;;;0.43;0.43;;;;;;;9.79;100.00;103033.28;4955351;28;20396;-58
2023/02/13 02:18:16;;;;;;;0.50;0.50;;;;;;;9.83;100.00;103021.63;4967530;28;20031;-59
2023/02/13 02:21:08;;;;;;;0.55;0.55;;;;;;;9.87;100.00;103019.97;4951067;28;20023;-58
2023/02/13 02:23:59;;;;;;;0.10;0.10;;;;;;;9.86;100.00;103021.06;4963872;28;20039;-61
2023/02/13 02:26:32;;;;;;;0.38;0.38;;;;;;;9.81;100.00;103031.09;4965202;28;20031;-60
2023/02/13 02:29:17;;;;;;;0.30;0.30;;;;;;;9.83;100.00;103024.31;4953116;28;20417;-58
2023/02/13 02:31:51;;;;;;;0.10;0.10;;;;;;;9.84;100.00;103033.19;4972237;28;20089;-61
2023/02/13 02:34:31;;;;;;;0.10;0.10;;;;;;;9.78;100.00;103029.78;4953259;28;20057;-57
2023/02/13 02:37:48;;;;;;;0.40;0.40;;;;;;;9.80;100.00;103021.41;4952903;28;20171;-60
2023/02/13 02:40:26;;;;;;;0.47;0.47;;;;;;;9.84;100.00;103022.44;4920403;28;20041;-61
2023/02/13 02:43:13;;;;;;;0.20;0.20;;;;;;;9.87;100.00;103024.56;4950470;28;20385;-58
2023/02/13 02:46:15;;;;;;;0.20;0.20;;;;;;;9.93;100.00;103020.69;4954202;28;20502;-57
2023/02/13 02:51:46;;;;;;;0.20;0.20;;;;;;;9.89;100.00;103023.16;4967261;28;20042;-58
2023/02/13 03:06:16;;;;;;;0.30;0.30;;;;;;;9.84;100.00;103012.47;4989659;28;20041;-69
2023/02/13 03:14:19;;;;;;;0.10;0.10;;;;;;;9.81;100.00;103015.75;4971221;28;20387;-69
2023/02/13 03:23:14;;;;;;;0.45;0.45;;;;;;;9.82;100.00;103016.53;4959247;28;20046;-69
2023/02/13 03:26:09;;;;;;;0.20;0.20;;;;;;;9.79;100.00;103011.75;4964613;28;20051;-69
2023/02/13 03:32:02;;;;;;;0.43;0.43;;;;;;;9.72;100.00;103009.41;4971139;28;20042;-69
2023/02/13 03:40:22;;;;;;;0.10;0.10;;;;;;;9.75;100.00;103018.81;4971449;28;19921;-69
2023/02/13 03:42:55;;;;;;;0.32;0.32;;;;;;;9.73;100.00;103018.28;4951829;28;20035;-69
2023/02/13 03:51:07;;;;;;;0.15;0.15;;;;;;;9.55;100.00;103019.88;4958194;28;20046;-69
2023/02/13 03:53:37;;;;;;;0.50;0.50;;;;;;;9.50;100.00;103019.97;4972683;28;20516;-67
2023/02/13 04:01:39;;;;;;;0.10;0.10;;;;;;;9.50;100.00;103028.03;4963243;28;20046;-72
2023/02/13 04:04:09;;;;;;;0.10;0.10;;;;;;;9.59;100.00;103031.66;4967550;28;20023;-70
2023/02/13 04:06:56;;;;;;;0.17;0.17;;;;;;;9.61;100.00;103031.38;4973377;28;20042;-72
2023/02/13 04:09:24;;;;;;;0.10;0.10;;;;;;;9.60;100.00;103037.84;4964254;28;20034;-71
2023/02/13 04:12:18;;;;;;;0.20;0.20;;;;;;;9.63;100.00;103037.25;4972272;28;20033;-72
2023/02/13 04:15:13;;;;;;;0.55;0.40;;;;;;;9.56;100.00;103032.22;4968096;28;20054;-71
2023/02/13 04:17:44;;;;;;;0.30;0.30;;;;;;;9.58;100.00;103018.50;4960727;28;20031;-72
2023/02/13 04:20:11;;;;;;;0.35;0.35;;;;;;;9.64;100.00;103022.75;4969704;28;20189;-72
2023/02/13 04:22:44;;;;;;;0.15;0.15;;;;;;;9.62;100.00;103020.31;4970089;28;20035;-72
2023/02/13 04:25:11;;;;;;;0.35;0.35;;;;;;;9.62;100.00;103030.28;4986981;28;20042;-73
2023/02/13 04:27:37;;;;;;;0.45;0.45;;;;;;;9.58;100.00;103024.66;4988876;28;20043;-72
2023/02/13 04:30:08;;;;;;;0.30;0.30;;;;;;;9.60;100.00;103025.19;4970155;28;20209;-72
2023/02/13 04:32:34;;;;;;;0.20;0.20;;;;;;;9.65;100.00;103018.94;4969748;28;20454;-71
2023/02/13 04:35:00;;;;;;;0.20;0.20;;;;;;;9.63;100.00;103021.94;4973462;28;20034;-72
2023/02/13 04:37:25;;;;;;;0.85;0.68;;;;;;;9.66;100.00;103025.91;4972943;28;20022;-72
2023/02/13 04:39:50;;;;;;;0.22;0.22;;;;;;;9.64;100.00;103028.13;4988846;28;20062;-72
2023/02/13 04:42:16;;;;;;;0.25;0.25;;;;;;;9.66;100.00;103015.16;4974389;28;20455;-73
2023/02/13 04:44:41;;;;;;;0.10;0.10;;;;;;;9.56;100.00;103026.06;4973088;28;20061;-72
2023/02/13 04:47:07;;;;;;;1.00;0.82;;;;;;;9.45;100.00;103029.94;4972664;28;20078;-72
2023/02/13 04:49:32;;;;;;;0.30;0.30;;;;;;;9.51;100.00;103028.81;4974703;28;20041;-72
2023/02/13 04:51:58;;;;;;;0.20;0.20;;;;;;;9.52;100.00;103028.53;4972986;28;20162;-69
2023/02/13 04:54:23;;;;;;;0.25;0.25;;;;;;;9.57;100.00;103031.16;4957353;28;20081;-72
2023/02/13 04:56:48;;;;;;;0.10;0.10;;;;;;;9.62;100.00;103030.28;4972805;28;20022;-73
2023/02/13 04:59:14;;;;;;;0.28;0.28;;;;;;;9.61;100.00;103031.38;4983360;28;20438;-72
2023/02/13 05:01:39;;;;;;;0.10;0.10;;;;;;;9.64;99.60;103028.91;4983183;28;20045;-72
2023/02/13 05:04:05;;;;;;;0.20;0.20;;;;;;;9.65;99.92;103033.19;4974085;28;20038;-72
2023/02/13 05:06:30;;;;;;;0.30;0.30;;;;;;;9.68;99.27;103029.09;4987395;28;20027;-72
2023/02/13 05:08:56;;;;;;;0.35;0.35;;;;;;;9.68;99.17;103023.72;4988339;28;20045;-72
2023/02/13 05:11:21;;;;;;;0.30;0.30;;;;;;;9.66;99.13;103033.97;4973828;28;20110;-73
2023/02/13 05:13:50;;;;;;;0.40;0.40;;;;;;;9.62;99.48;103033.75;4974514;28;20487;-71
2023/02/13 05:16:15;;;;;;;0.10;0.10;;;;;;;9.59;99.11;103025.47;4981865;28;20487;-72
2023/02/13 05:18:40;;;;;;;0.20;0.20;;;;;;;9.61;99.10;103028.69;4975259;28;20042;-70
2023/02/13 05:23:50;;;;;;;0.10;0.10;;;;;;;9.61;99.17;103028.69;4973541;28;20045;-73
2023/02/13 05:26:15;;;;;;;0.30;0.30;;;;;;;9.55;99.50;103025.25;4986127;28;20843;-71
2023/02/13 05:31:25;;;;;;;0.13;0.13;;;;;;;9.58;99.12;103026.56;4970349;28;20034;-73
2023/02/13 05:33:50;;;;;;;0.45;0.45;;;;;;;9.57;99.23;103030.34;4972405;28;20014;-73
2023/02/13 05:36:15;;;;;;;0.50;0.50;;;;;;;9.57;99.36;103027.66;4972579;28;20407;-71
2023/02/13 05:38:41;;;;;;;0.20;0.20;;;;;;;9.52;99.31;103033.09;4974831;28;20034;-73
2023/02/13 05:41:06;;;;;;;0.20;0.20;;;;;;;9.52;99.64;103025.03;4974338;28;20104;-72
2023/02/13 05:43:52;;;;;;;0.10;0.10;;;;;;;9.50;99.18;103025.34;4990562;28;20204;-73
2023/02/13 05:46:18;;;;;;;0.35;0.35;;;;;;;9.51;99.27;103034.19;4937301;28;20089;-71
2023/02/13 05:48:43;;;;;;;0.57;0.35;;;;;;;9.52;99.17;103027.72;4930975;29;20083;-73
2023/02/13 05:51:09;;;;;;;0.30;0.30;;;;;;;9.60;98.82;103027.09;4924911;29;20044;-73
2023/02/13 05:53:34;;;;;;;0.70;0.70;;;;;;;9.58;98.78;103023.88;4934448;29;20065;-71
2023/02/13 05:56:01;;;;;;;0.20;0.20;;;;;;;9.61;98.92;103029.47;4932575;29;20043;-72
2023/02/13 05:58:27;;;;;;;0.10;0.10;;;;;;;9.56;98.76;103028.75;4936547;29;20074;-72
2023/02/13 06:00:57;;;;;;;1.33;1.33;;;;;;;9.57;98.64;103033.03;4926986;29;20046;-72
2023/02/13 06:03:23;;;;;;;0.10;0.10;;;;;;;9.55;99.25;103037.91;4929692;29;20046;-72
2023/02/13 06:05:48;;;;;;;0.45;0.45;;;;;;;9.56;98.97;103036.81;4931746;29;20047;-72
2023/02/13 06:08:14;;;;;;;1.95;0.40;;;;;;;9.52;98.74;103030.41;4925908;29;20149;-72
2023/02/13 06:10:39;;;;;;;0.20;0.20;;;;;;;9.52;98.65;103033.09;4929334;29;20130;-73
2023/02/13 06:13:25;;;;;;;0.43;0.43;;;;;;;9.52;99.14;103039.28;4906844;29;20047;-72
2023/02/13 06:15:51;;;;;;;0.52;0.52;;;;;;;9.53;99.09;103037.38;4868969;29;20059;-69
2023/02/13 06:18:16;;;;;;;0.10;0.10;;;;;;;9.52;99.06;103042.00;4872952;29;20432;-73
2023/02/13 06:20:42;;;;;;;0.50;0.50;;;;;;;9.53;98.70;103035.50;4863758;29;20059;-73
2023/02/13 06:23:07;;;;;;;0.40;0.40;;;;;;;9.56;98.61;103040.28;4895918;29;20524;-67
2023/02/13 06:25:36;;;;;;;0.20;0.20;;;;;;;9.56;98.39;103042.19;4875962;29;20059;-72
2023/02/13 06:28:02;;;;;;;0.17;0.17;;;;;;;9.54;98.06;103041.69;4929855;29;20051;-72
2023/02/13 06:30:28;;;;;;;0.75;0.75;;;;;;;9.49;98.39;103047.94;4929976;29;20036;-73
2023/02/13 06:32:53;;;;;;;1.98;0.30;;;;;;;9.50;98.45;103054.91;4930138;29;20110;-68
2023/02/13 06:35:19;;;;;;;0.20;0.20;;;;;;;9.48;98.49;103051.72;4928904;29;20039;-73
2023/02/13 06:37:45;;;;;;;0.20;0.20;;;;;;;9.43;98.12;103048.25;4916287;29;20131;-72
2023/02/13 06:40:12;;;;;;;0.85;0.85;;;;;;;9.45;98.56;103065.72;4910300;29;20091;-73
2023/02/13 06:42:38;;;;;;;0.98;0.95;;;;;;;9.49;97.83;103058.69;4933461;29;20036;-68
2023/02/13 06:45:04;;;;;;;0.28;0.28;;;;;;;9.49;98.13;103052.50;4924449;29;20460;-72
2023/02/13 06:47:29;;;;;;;0.55;0.38;;;;;;;9.49;98.48;103058.69;4927202;29;20139;-73
2023/02/13 06:49:55;;;;;;;0.30;0.30;;;;;;;9.50;98.36;103059.50;4931124;29;20032;-73
2023/02/13 06:52:20;;;;;;;0.38;0.38;;;;;;;9.52;97.90;103066.19;4913957;28;20070;-70
2023/02/13 06:54:46;;;;;;;0.95;0.95;;;;;;;9.51;97.96;103061.06;4969608;28;20057;-68
2023/02/13 06:57:11;;;;;;;0.30;0.30;;;;;;;9.52;98.03;103068.06;4968401;28;20053;-73
2023/02/13 06:59:37;;;;;;;0.20;0.20;;;;;;;9.54;98.33;103065.91;4962190;28;20069;-72
2023/02/13 07:02:02;;;;;;;0.25;0.25;;;;;;;9.53;97.80;103066.97;4990497;28;20029;-72
2023/02/13 07:04:27;;;;;;;0.38;0.32;;;;;;;9.48;98.34;103078.63;4982213;28;20038;-72
2023/02/13 07:06:54;;;;;;;0.75;0.75;;;;;;;9.47;98.13;103079.69;4950930;28;20027;-70
2023/02/13 07:09:19;;;;;;;0.10;0.10;;;;;;;9.51;98.04;103087.97;4952025;28;20055;-71
2023/02/13 07:11:45;;;;;;;0.20;0.20;;;;;;;9.51;97.96;103080.72;4979625;28;20031;-72
2023/02/13 07:21:49;;;;;;;0.30;0.30;;;;;;;9.46;98.44;103086.16;4976377;28;20086;-71
2023/02/13 07:24:15;;;;;;;0.65;0.43;;;;;;;9.49;98.16;103095.53;4978450;28;20062;-71
2023/02/13 07:26:40;;;;;;;0.20;0.20;;;;;;;9.54;98.39;103098.19;4983894;28;20065;-71
2023/02/13 07:29:13;;;;;;;0.20;0.20;;;;;;;9.53;98.28;103096.56;4989223;28;20107;-66
2023/02/13 07:31:43;;;;;;;0.57;0.57;;;;;;;9.54;97.80;103082.81;4994671;28;20035;-66
2023/02/13 07:34:18;;;;;;;0.13;0.13;;;;;;;9.54;97.92;103084.72;4994988;28;20030;-66
2023/02/13 07:36:44;;;;;;;0.40;0.40;;;;;;;9.55;98.09;103103.25;4985630;28;20137;-70
2023/02/13 07:39:09;;;;;;;0.10;0.10;;;;;;;9.54;98.59;103100.88;4974344;28;20034;-72
2023/02/13 07:41:34;;;;;;;0.10;0.10;;;;;;;9.57;98.53;103111.03;4972441;28;20045;-71
2023/02/13 07:44:00;;;;;;;0.38;0.38;;;;;;;9.57;98.67;103108.34;4968859;28;20070;-70
2023/02/13 07:46:25;;;;;;;0.38;0.38;;;;;;;9.59;98.55;103106.97;4967956;28;20058;-71
2023/02/13 07:48:51;;;;;;;0.43;0.43;;;;;;;9.62;97.98;103103.69;4969656;28;20037;-70
2023/02/13 07:51:17;;;;;;;0.22;0.22;;;;;;;9.62;98.66;103109.09;4963927;28;20368;-70
2023/02/13 07:53:42;;;;;;;0.20;0.20;;;;;;;9.61;98.31;103106.69;4972250;28;20105;-72
2023/02/13 07:56:09;;;;;;;0.20;0.20;;;;;;;9.60;98.75;103107.78;4974644;28;20117;-70
2023/02/13 07:58:38;;;;;;;1.00;0.57;;;;;;;9.59;98.97;103112.38;4991156;28;20043;-67
2023/02/13 08:01:09;;;;;;;0.28;0.28;;;;;;;9.63;98.22;103117.97;4969012;28;20323;-71
2023/02/13 08:03:35;;;;;;;1.17;0.55;;;;;;;9.64;98.53;103104.22;4971643;28;20043;-71
2023/02/13 08:06:01;;;;;;;0.40;0.40;;;;;;;9.66;98.12;103103.94;4978986;28;20223;-67
2023/02/13 08:08:26;;;;;;;0.30;0.30;;;;;;;9.65;98.08;103115.78;4964888;28;20022;-71
2023/02/13 08:13:40;;;;;;;0.95;0.50;;;;;;;9.67;98.26;103117.13;4990944;28;20106;-67
2023/02/13 08:16:06;;;;;;;0.25;0.25;;;;;;;9.67;98.61;103114.44;4988492;28;20026;-68
2023/02/13 08:18:36;;;;;;;0.22;0.22;;;;;;;9.66;98.31;103122.75;4974748;28;20082;-71
2023/02/13 08:21:03;;;;;;;0.10;0.10;;;;;;;9.66;98.49;103128.13;4994291;28;20051;-69
2023/02/13 08:23:28;;;;;;;0.10;0.10;;;;;;;9.66;98.04;103117.38;4993418;28;20071;-71
2023/02/13 08:25:54;;;;;;;0.10;0.10;;;;;;;9.68;98.22;103123.28;5004932;28;20419;-72
2023/02/13 08:28:19;;;;;;;0.25;0.25;;;;;;;9.66;98.29;103117.38;4982761;28;20066;-71
2023/02/13 08:30:45;;;;;;;0.20;0.20;;;;;;;9.67;98.47;103119.00;4973157;28;20042;-72
2023/02/13 08:33:10;;;;;;;1.33;0.52;;;;;;;9.66;97.95;103118.19;4974031;28;20050;-71
2023/02/13 08:35:35;;;;;;;0.40;0.32;;;;;;;9.68;97.68;103117.88;4946273;28;20031;-72
2023/02/13 08:38:04;;;;;;;0.10;0.10;;;;;;;9.70;97.98;103121.91;4975323;28;20038;-72
2023/02/13 08:40:34;;;;;;;0.10;0.10;;;;;;;9.69;97.90;103114.94;4995610;28;20062;-71
2023/02/13 08:43:01;;;;;;;0.32;0.32;;;;;;;9.69;97.69;103123.00;4995707;28;20049;-72
2023/02/13 08:45:27;;;;;;;0.45;0.45;;;;;;;9.69;97.81;103120.31;4985833;28;20073;-69
2023/02/13 08:47:57;;;;;;;0.40;0.40;;;;;;;9.72;98.05;103124.31;4976444;28;20023;-71
2023/02/13 08:50:23;;;;;;;0.20;0.20;;;;;;;9.71;97.79;103125.41;4992335;28;20039;-71
2023/02/13 08:52:49;;;;;;;1.95;0.52;;;;;;;9.72;98.06;103125.13;4984404;28;20491;-71
2023/02/13 08:55:16;;;;;;;0.20;0.20;;;;;;;9.74;98.02;103131.00;4981936;28;20027;-71
2023/02/13 08:57:42;;;;;;;0.30;0.30;;;;;;;9.76;97.68;103123.44;5000890;23;20042;-56
2023/02/13 09:00:08;;;;;;;0.22;0.22;;;;;;;9.76;97.82;103128.03;4976671;28;20097;-54
2023/02/13 09:02:33;;;;;;;0.30;0.30;;;;;;;9.77;97.53;103129.63;4975923;28;20555;-58
2023/02/13 09:04:59;;;;;;;1.23;0.63;;;;;;;9.78;97.42;103123.97;4983098;28;20031;-58
2023/02/13 09:07:25;;;;;;;0.17;0.17;;;;;;;9.81;97.48;103125.28;4974922;28;20536;-55
2023/02/13 09:09:51;;;;;;;0.20;0.20;;;;;;;9.77;97.49;103118.88;4971493;28;20092;-59
2023/02/13 09:12:16;;;;;;;0.32;0.32;;;;;;;9.80;96.76;103121.78;4973794;28;20474;-56
2023/02/13 09:14:42;;;;;;;0.38;0.38;;;;;;;9.81;97.09;103117.22;4972670;28;20062;-55
2023/02/13 09:17:07;;;;;;;0.10;0.10;;;;;;;9.81;96.85;103109.91;4986531;28;20030;-55
2023/02/13 09:19:33;;;;;;;0.20;0.20;;;;;;;9.86;96.84;103114.44;4985932;28;20113;-57
2023/02/13 09:21:58;;;;;;;0.20;0.20;;;;;;;9.80;96.26;103121.78;4980091;28;20465;-58
2023/02/13 09:24:24;;;;;;;0.10;0.10;;;;;;;9.83;96.81;103109.66;4980794;28;20035;-58
2023/02/13 09:26:50;;;;;;;0.98;0.63;;;;;;;9.88;96.27;103114.97;4984800;28;20043;-57
2023/02/13 09:29:16;;;;;;;0.38;0.38;;;;;;;9.90;96.25;103115.47;4985696;28;20055;-56
2023/02/13 09:31:41;;;;;;;0.10;0.10;;;;;;;9.91;96.12;103122.47;4981112;28;20049;-58
2023/02/13 09:34:07;;;;;;;0.10;0.10;;;;;;;9.91;96.08;103133.25;4991414;28;20026;-57
2023/02/13 09:36:33;;;;;;;1.60;0.65;;;;;;;9.92;96.20;103132.13;4986585;28;20097;-57
2023/02/13 09:38:59;;;;;;;0.43;0.43;;;;;;;9.93;95.84;103141.78;4984871;28;20045;-58
2023/02/13 09:41:28;;;;;;;0.20;0.20;;;;;;;9.96;95.27;103138.53;4991933;28;20045;-57
2023/02/13 09:43:59;;;;;;;0.57;0.57;;;;;;;9.98;95.75;103136.38;4988678;28;20062;-57
2023/02/13 09:46:31;;;;;;;0.38;0.38;;;;;;;10.01;94.75;103130.41;4949893;28;20104;-56
2023/02/13 09:49:00;;;;;;;0.35;0.35;;;;;;;9.98;94.95;103123.72;4992806;28;20415;-55
2023/02/13 09:51:27;;;;;;;0.20;0.20;;;;;;;9.96;94.84;103130.47;4980991;28;20026;-58
2023/02/13 09:54:02;;;;;;;0.15;0.15;;;;;;;9.98;94.81;103129.09;4992917;28;20030;-53
2023/02/13 09:56:40;;;;;;;0.50;0.50;;;;;;;9.96;93.77;103125.91;4970816;28;20163;-57
2023/02/13 09:59:34;;;;;;;0.10;0.10;;;;;;;9.72;94.11;103127.81;4962709;28;20046;-59
2023/02/13 10:02:13;;;;;;;0.30;0.30;;;;;;;9.80;94.71;103124.47;4991791;28;20031;-58
2023/02/13 10:05:05;;;;;;;0.57;0.57;;;;;;;9.86;94.65;103119.84;4985412;28;20113;-58
2023/02/13 10:07:45;;;;;;;0.10;0.10;;;;;;;9.90;94.27;103120.84;4981271;28;20046;-59
2023/02/13 10:10:50;;;;;;;0.32;0.30;;;;;;;9.96;93.32;103123.19;4982322;28;20042;-57
2023/02/13 10:13:34;;;;;;;0.20;0.20;;;;;;;10.00;92.88;103118.03;4963618;28;20038;-58
2023/02/13 10:16:02;;;;;;;0.47;0.47;;;;;;;10.04;93.11;103113.69;4984726;28;20042;-59
2023/02/13 10:18:46;;;;;;;0.32;0.32;;;;;;;10.04;92.66;103113.69;4978843;28;20042;-56
2023/02/13 10:21:13;;;;;;;0.32;0.32;;;;;;;10.01;92.62;103100.78;4972597;28;20049;-58
2023/02/13 10:23:57;;;;;;;0.47;0.47;;;;;;;9.98;92.89;103104.88;4974128;28;20033;-57
2023/02/13 10:26:41;;;;;;;0.13;0.13;;;;;;;10.04;92.83;103097.53;4983219;28;20038;-58
2023/02/13 10:32:03;;;;;;;0.17;0.17;;;;;;;10.08;91.40;103106.63;4973950;28;20073;-56
2023/02/13 10:34:36;;;;;;;0.40;0.40;;;;;;;10.10;91.66;103103.66;4973228;28;20058;-58
2023/02/13 10:37:02;;;;;;;0.40;0.40;;;;;;;10.09;91.56;103110.91;4979117;28;20477;-56
2023/02/13 10:39:29;;;;;;;0.15;0.15;;;;;;;10.32;90.92;103106.56;4987299;28;20030;-58
2023/02/13 10:42:23;;;;;;;0.22;0.22;;;;;;;10.23;91.07;103111.00;4984100;28;20039;-57
2023/02/13 10:45:01;;;;;;;0.10;0.10;;;;;;;10.27;91.06;103110.16;4965172;28;20037;-58
2023/02/13 10:48:00;;;;;;;1.02;0.43;;;;;;;10.27;90.44;103104.75;4965175;28;20038;-58
2023/02/13 10:50:30;;;;;;;0.20;0.20;;;;;;;10.29;91.02;103116.03;4979367;28;20034;-58
2023/02/13 10:53:01;;;;;;;0.30;0.30;;;;;;;10.08;90.89;103108.50;4988891;28;20045;-58
2023/02/13 10:55:40;;;;;;;0.28;0.28;;;;;;;10.13;91.24;103101.19;4976851;28;20562;-59
2023/02/13 10:58:19;;;;;;;0.15;0.15;;;;;;;10.22;91.37;103096.75;4983959;28;20117;-57
2023/02/13 11:00:48;;;;;;;0.25;0.25;;;;;;;10.22;91.34;103107.50;4991227;28;20045;-57
2023/02/13 11:03:20;;;;;;;0.57;0.57;;;;;;;10.27;91.26;103107.47;4976573;28;20203;-57
2023/02/13 11:05:47;;;;;;;0.20;0.20;;;;;;;10.30;91.01;103111.47;4979132;28;20137;-57
2023/02/13 11:08:23;;;;;;;0.20;0.20;;;;;;;10.33;91.85;103103.59;4978654;28;20030;-56
2023/02/13 11:10:50;;;;;;;0.63;0.63;;;;;;;10.41;90.99;103108.34;4974086;28;20034;-58
2023/02/13 11:13:24;;;;;;;0.20;0.20;;;;;;;10.36;91.33;103105.69;4972930;28;20029;-58
2023/02/13 11:16:06;;;;;;;0.40;0.40;;;;;;;10.23;92.18;103101.06;4979389;28;20046;-58
2023/02/13 11:18:47;;;;;;;0.52;0.40;;;;;;;10.29;92.71;103104.47;4973973;28;20035;-58
2023/02/13 11:21:21;;;;;;;0.40;0.40;;;;;;;10.35;91.87;103090.66;4970942;28;20062;-56
2023/02/13 11:23:52;;;;;;;0.38;0.38;;;;;;;10.36;91.47;103091.41;4973789;28;20030;-58
2023/02/13 11:26:33;;;;;;;1.55;0.73;;;;;;;10.49;91.07;103096.88;4969568;28;20046;-58
2023/02/13 11:29:20;;;;;;;0.10;0.10;;;;;;;10.54;90.39;103088.72;4994924;28;20034;-59
2023/02/13 11:32:05;;;;;;;1.05;1.05;;;;;;;10.61;89.67;103080.25;4993514;28;20038;-61
2023/02/13 11:34:33;;;;;;;0.63;0.63;;;;;;;10.49;90.10;103088.78;4986097;28;20397;-56
2023/02/13 11:37:21;;;;;;;0.10;0.10;;;;;;;10.66;89.00;103093.66;4981643;28;20039;-57
2023/02/13 11:39:49;;;;;;;0.20;0.20;;;;;;;10.67;88.78;103089.84;4951725;28;20057;-58
2023/02/13 11:42:18;;;;;;;0.60;0.60;;;;;;;10.72;88.54;103093.25;4953596;28;20031;-53
2023/02/13 11:44:50;;;;;;;0.85;0.85;;;;;;;10.59;89.00;103094.00;4978496;28;20022;-56
2023/02/13 11:47:30;;;;;;;0.40;0.40;;;;;;;10.54;88.79;103096.81;4971633;28;20171;-52
2023/02/13 11:49:55;;;;;;;0.10;0.10;;;;;;;10.47;88.57;103095.59;4982427;28;20037;-58
2023/02/13 11:52:26;;;;;;;0.30;0.30;;;;;;;10.56;88.48;103093.81;4979575;28;21031;-58
2023/02/13 11:54:58;;;;;;;0.60;0.52;;;;;;;10.38;87.46;103087.34;4968388;28;20034;-54
2023/02/13 11:57:34;;;;;;;0.25;0.25;;;;;;;10.48;88.30;103084.50;4975536;28;20035;-54
2023/02/13 12:00:21;;;;;;;0.10;0.10;;;;;;;10.55;88.38;103087.63;4981885;28;20035;-57
2023/02/13 12:02:49;;;;;;;0.57;0.57;;;;;;;10.57;88.49;103090.00;4971015;28;20399;-55
2023/02/13 12:05:18;;;;;;;0.10;0.10;;;;;;;10.61;88.72;103086.44;4974180;28;20466;-57
2023/02/13 12:07:45;;;;;;;0.68;0.68;;;;;;;10.73;88.28;103073.31;4959991;28;20393;-62
2023/02/13 12:10:27;;;;;;;0.13;0.13;;;;;;;10.71;88.16;103075.50;4978812;28;20090;-59
2023/02/13 12:13:14;;;;;;;0.22;0.22;;;;;;;10.66;87.87;103077.47;4965545;28;20374;-57
2023/02/13 12:15:40;;;;;;;0.20;0.20;;;;;;;10.67;87.74;103077.19;4967876;28;20037;-57
2023/02/13 12:18:11;;;;;;;0.60;0.47;;;;;;;10.63;88.23;103067.28;4968187;28;20043;-57
2023/02/13 12:20:52;;;;;;;0.30;0.30;;;;;;;10.56;89.21;103064.16;4972379;28;20386;-57
2023/02/13 12:23:17;;;;;;;0.20;0.20;;;;;;;10.63;88.44;103067.28;4972803;28;20034;-58
2023/02/13 12:26:30;;;;;;;0.10;0.10;;;;;;;10.60;88.56;103075.97;4971344;28;20630;-55
2023/02/13 12:29:03;;;;;;;0.40;0.40;;;;;;;10.65;88.89;103075.88;4915826;29;20046;-54
2023/02/13 12:31:49;;;;;;;0.38;0.38;;;;;;;10.66;88.13;103075.59;4978942;28;20050;-54
2023/02/13 12:34:34;;;;;;;0.57;0.57;;;;;;;10.70;88.34;103063.09;4984987;28;20041;-56
2023/02/13 12:37:34;;;;;;;0.43;0.43;;;;;;;10.74;87.16;103063.34;4987991;28;20121;-53
2023/02/13 12:40:14;;;;;;;0.20;0.20;;;;;;;10.77;87.42;103057.34;4980866;28;20042;-56
2023/02/13 12:43:06;;;;;;;0.40;0.40;;;;;;;10.79;86.70;103049.75;4976038;28;20034;-56
2023/02/13 12:45:41;;;;;;;0.40;0.40;;;;;;;10.81;86.40;103051.06;4978414;28;20042;-56
2023/02/13 12:48:19;;;;;;;0.73;0.73;;;;;;;10.78;85.86;103050.88;4977949;28;20042;-60
2023/02/13 12:51:10;;;;;;;0.20;0.20;;;;;;;10.88;85.95;103054.16;4978253;28;20030;-57